sensor_id;sensor_type;location;lat;lon;timestamp;P1;durP1;ratioP1;P2;durP2;ratioP2
69417;SDS011;56610;48.872;2.400;2023-03-01T00:01:24;4.88;;;4.20;;
69417;SDS011;56610;48.872;2.400;2023-03-01T00:03:55;5.03;;;4.53;;
69417;SDS011;56610;48.872;2.400;2023-03-01T00:06:22;5.15;;;4.30;;
69417;SDS011;56610;48.872;2.400;2023-03-01T00:08:48;5.93;;;4.80;;
69417;SDS011;56610;48.872;2.400;2023-03-01T00:13:42;5.85;;;4.47;;
69417;SDS011;56610;48.872;2.400;2023-03-01T00:16:10;4.68;;;4.28;;
69417;SDS011;56610;48.872;2.400;2023-03-01T00:18:39;4.93;;;4.43;;
69417;SDS011;56610;48.872;2.400;2023-03-01T00:21:05;5.63;;;4.10;;
69417;SDS011;56610;48.872;2.400;2023-03-01T00:23:31;6.65;;;4.40;;
69417;SDS011;56610;48.872;2.400;2023-03-01T00:28:24;7.13;;;4.30;;
69417;SDS011;56610;48.872;2.400;2023-03-01T00:30:50;5.63;;;4.32;;
69417;SDS011;56610;48.872;2.400;2023-03-01T00:33:16;5.85;;;5.25;;
69417;SDS011;56610;48.872;2.400;2023-03-01T00:35:42;5.40;;;4.90;;
69417;SDS011;56610;48.872;2.400;2023-03-01T00:38:07;6.05;;;5.20;;
69417;SDS011;56610;48.872;2.400;2023-03-01T00:40:34;5.82;;;4.80;;
69417;SDS011;56610;48.872;2.400;2023-03-01T00:43:00;5.88;;;5.28;;
69417;SDS011;56610;48.872;2.400;2023-03-01T00:45:27;4.68;;;4.28;;
69417;SDS011;56610;48.872;2.400;2023-03-01T00:47:56;6.25;;;4.97;;
69417;SDS011;56610;48.872;2.400;2023-03-01T00:50:22;5.75;;;5.15;;
69417;SDS011;56610;48.872;2.400;2023-03-01T00:52:51;6.65;;;4.90;;
69417;SDS011;56610;48.872;2.400;2023-03-01T00:55:18;5.32;;;4.80;;
69417;SDS011;56610;48.872;2.400;2023-03-01T00:57:44;5.20;;;4.70;;
69417;SDS011;56610;48.872;2.400;2023-03-01T01:00:09;6.00;;;4.60;;
69417;SDS011;56610;48.872;2.400;2023-03-01T01:02:36;6.18;;;5.25;;
69417;SDS011;56610;48.872;2.400;2023-03-01T01:05:02;5.45;;;4.95;;
69417;SDS011;56610;48.872;2.400;2023-03-01T01:07:28;5.53;;;5.00;;
69417;SDS011;56610;48.872;2.400;2023-03-01T01:09:54;5.82;;;5.22;;
69417;SDS011;56610;48.872;2.400;2023-03-01T01:12:20;6.38;;;5.05;;
69417;SDS011;56610;48.872;2.400;2023-03-01T01:14:45;4.93;;;4.45;;
69417;SDS011;56610;48.872;2.400;2023-03-01T01:17:11;6.97;;;5.45;;
69417;SDS011;56610;48.872;2.400;2023-03-01T01:19:36;9.18;;;5.55;;
69417;SDS011;56610;48.872;2.400;2023-03-01T01:22:02;6.75;;;5.68;;
69417;SDS011;56610;48.872;2.400;2023-03-01T01:24:28;5.95;;;5.35;;
69417;SDS011;56610;48.872;2.400;2023-03-01T01:26:54;6.40;;;5.80;;
69417;SDS011;56610;48.872;2.400;2023-03-01T01:29:19;6.13;;;5.60;;
69417;SDS011;56610;48.872;2.400;2023-03-01T01:31:45;5.65;;;5.15;;
69417;SDS011;56610;48.872;2.400;2023-03-01T01:34:15;5.72;;;5.22;;
69417;SDS011;56610;48.872;2.400;2023-03-01T01:36:42;6.25;;;5.65;;
69417;SDS011;56610;48.872;2.400;2023-03-01T01:39:08;5.68;;;5.10;;
69417;SDS011;56610;48.872;2.400;2023-03-01T01:41:38;8.35;;;5.93;;
69417;SDS011;56610;48.872;2.400;2023-03-01T01:44:10;5.82;;;5.32;;
69417;SDS011;56610;48.872;2.400;2023-03-01T01:46:40;7.82;;;5.55;;
69417;SDS011;56610;48.872;2.400;2023-03-01T01:57:01;6.57;;;5.35;;
69417;SDS011;56610;48.872;2.400;2023-03-01T01:59:30;5.82;;;5.20;;
69417;SDS011;56610;48.872;2.400;2023-03-01T02:01:57;5.38;;;4.95;;
69417;SDS011;56610;48.872;2.400;2023-03-01T02:04:27;5.13;;;4.63;;
69417;SDS011;56610;48.872;2.400;2023-03-01T02:09:52;4.93;;;4.40;;
69417;SDS011;56610;48.872;2.400;2023-03-01T02:12:19;6.38;;;4.97;;
69417;SDS011;56610;48.872;2.400;2023-03-01T02:14:47;6.25;;;5.07;;
69417;SDS011;56610;48.872;2.400;2023-03-01T02:17:14;5.60;;;4.75;;
69417;SDS011;56610;48.872;2.400;2023-03-01T02:22:23;6.25;;;5.38;;
69417;SDS011;56610;48.872;2.400;2023-03-01T02:27:51;5.68;;;5.07;;
69417;SDS011;56610;48.872;2.400;2023-03-01T02:30:35;7.22;;;5.50;;
69417;SDS011;56610;48.872;2.400;2023-03-01T02:35:47;5.90;;;5.30;;
69417;SDS011;56610;48.872;2.400;2023-03-01T02:38:12;5.43;;;4.93;;
69417;SDS011;56610;48.872;2.400;2023-03-01T02:40:38;5.43;;;4.93;;
69417;SDS011;56610;48.872;2.400;2023-03-01T02:43:06;6.80;;;5.97;;
69417;SDS011;56610;48.872;2.400;2023-03-01T02:45:35;6.70;;;5.30;;
69417;SDS011;56610;48.872;2.400;2023-03-01T02:48:00;5.40;;;4.90;;
69417;SDS011;56610;48.872;2.400;2023-03-01T02:58:07;6.70;;;5.75;;
69417;SDS011;56610;48.872;2.400;2023-03-01T03:00:37;6.72;;;5.13;;
69417;SDS011;56610;48.872;2.400;2023-03-01T03:03:13;6.50;;;5.70;;
69417;SDS011;56610;48.872;2.400;2023-03-01T03:05:40;6.78;;;5.18;;
69417;SDS011;56610;48.872;2.400;2023-03-01T03:08:06;6.32;;;5.53;;
69417;SDS011;56610;48.872;2.400;2023-03-01T03:10:34;6.05;;;5.35;;
69417;SDS011;56610;48.872;2.400;2023-03-01T03:13:03;6.72;;;5.88;;
69417;SDS011;56610;48.872;2.400;2023-03-01T03:15:33;6.32;;;5.72;;
69417;SDS011;56610;48.872;2.400;2023-03-01T03:18:01;5.83;;;5.23;;
69417;SDS011;56610;48.872;2.400;2023-03-01T03:20:27;8.43;;;6.00;;
69417;SDS011;56610;48.872;2.400;2023-03-01T03:22:54;6.53;;;5.93;;
69417;SDS011;56610;48.872;2.400;2023-03-01T03:25:21;6.65;;;6.05;;
69417;SDS011;56610;48.872;2.400;2023-03-01T03:27:47;6.85;;;6.15;;
69417;SDS011;56610;48.872;2.400;2023-03-01T03:30:16;6.90;;;6.13;;
69417;SDS011;56610;48.872;2.400;2023-03-01T03:32:44;6.45;;;5.72;;
69417;SDS011;56610;48.872;2.400;2023-03-01T03:35:17;6.40;;;5.80;;
69417;SDS011;56610;48.872;2.400;2023-03-01T03:37:47;7.32;;;6.25;;
69417;SDS011;56610;48.872;2.400;2023-03-01T03:40:30;7.15;;;5.78;;
69417;SDS011;56610;48.872;2.400;2023-03-01T03:43:04;6.82;;;6.18;;
69417;SDS011;56610;48.872;2.400;2023-03-01T03:45:31;7.30;;;6.13;;
69417;SDS011;56610;48.872;2.400;2023-03-01T03:47:58;6.53;;;5.88;;
69417;SDS011;56610;48.872;2.400;2023-03-01T03:50:28;6.53;;;5.82;;
69417;SDS011;56610;48.872;2.400;2023-03-01T03:52:54;7.00;;;6.32;;
69417;SDS011;56610;48.872;2.400;2023-03-01T03:55:19;6.78;;;6.07;;
69417;SDS011;56610;48.872;2.400;2023-03-01T03:57:46;8.48;;;6.07;;
69417;SDS011;56610;48.872;2.400;2023-03-01T04:00:17;6.53;;;5.93;;
69417;SDS011;56610;48.872;2.400;2023-03-01T04:05:12;6.45;;;5.63;;
69417;SDS011;56610;48.872;2.400;2023-03-01T04:07:40;7.03;;;5.93;;
69417;SDS011;56610;48.872;2.400;2023-03-01T04:10:08;6.40;;;5.80;;
69417;SDS011;56610;48.872;2.400;2023-03-01T04:12:39;7.10;;;6.40;;
69417;SDS011;56610;48.872;2.400;2023-03-01T04:15:05;7.53;;;6.40;;
69417;SDS011;56610;48.872;2.400;2023-03-01T04:17:44;7.47;;;6.05;;
69417;SDS011;56610;48.872;2.400;2023-03-01T04:20:12;8.55;;;6.18;;
69417;SDS011;56610;48.872;2.400;2023-03-01T04:22:49;7.07;;;6.38;;
69417;SDS011;56610;48.872;2.400;2023-03-01T04:25:16;8.23;;;6.72;;
69417;SDS011;56610;48.872;2.400;2023-03-01T04:27:42;7.10;;;6.32;;
69417;SDS011;56610;48.872;2.400;2023-03-01T04:30:08;7.43;;;6.63;;
69417;SDS011;56610;48.872;2.400;2023-03-01T04:32:35;6.63;;;5.93;;
69417;SDS011;56610;48.872;2.400;2023-03-01T04:35:01;8.15;;;6.72;;
69417;SDS011;56610;48.872;2.400;2023-03-01T04:37:26;6.82;;;6.13;;
69417;SDS011;56610;48.872;2.400;2023-03-01T04:39:52;7.13;;;6.43;;
69417;SDS011;56610;48.872;2.400;2023-03-01T04:42:18;7.15;;;6.45;;
69417;SDS011;56610;48.872;2.400;2023-03-01T04:44:44;8.30;;;6.38;;
69417;SDS011;56610;48.872;2.400;2023-03-01T04:47:10;6.97;;;6.35;;
69417;SDS011;56610;48.872;2.400;2023-03-01T04:49:36;8.82;;;6.55;;
69417;SDS011;56610;48.872;2.400;2023-03-01T04:52:01;6.75;;;5.88;;
69417;SDS011;56610;48.872;2.400;2023-03-01T04:54:28;7.18;;;6.10;;
69417;SDS011;56610;48.872;2.400;2023-03-01T04:56:55;7.43;;;6.65;;
69417;SDS011;56610;48.872;2.400;2023-03-01T04:59:20;7.60;;;6.47;;
69417;SDS011;56610;48.872;2.400;2023-03-01T05:01:47;9.73;;;6.65;;
69417;SDS011;56610;48.872;2.400;2023-03-01T05:04:13;7.18;;;6.47;;
69417;SDS011;56610;48.872;2.400;2023-03-01T05:06:39;7.60;;;6.78;;
69417;SDS011;56610;48.872;2.400;2023-03-01T05:09:05;6.93;;;6.30;;
69417;SDS011;56610;48.872;2.400;2023-03-01T05:11:31;8.52;;;7.00;;
69417;SDS011;56610;48.872;2.400;2023-03-01T05:14:00;7.30;;;6.55;;
69417;SDS011;56610;48.872;2.400;2023-03-01T05:16:27;8.30;;;6.28;;
69417;SDS011;56610;48.872;2.400;2023-03-01T05:18:52;7.45;;;6.72;;
69417;SDS011;56610;48.872;2.400;2023-03-01T05:21:20;7.43;;;6.72;;
69417;SDS011;56610;48.872;2.400;2023-03-01T05:23:46;8.55;;;6.88;;
69417;SDS011;56610;48.872;2.400;2023-03-01T05:26:12;7.82;;;7.03;;
69417;SDS011;56610;48.872;2.400;2023-03-01T05:28:38;7.55;;;6.85;;
69417;SDS011;56610;48.872;2.400;2023-03-01T05:31:04;8.18;;;7.03;;
69417;SDS011;56610;48.872;2.400;2023-03-01T05:33:35;6.82;;;6.13;;
69417;SDS011;56610;48.872;2.400;2023-03-01T05:36:07;7.25;;;6.50;;
69417;SDS011;56610;48.872;2.400;2023-03-01T05:38:35;8.65;;;7.20;;
69417;SDS011;56610;48.872;2.400;2023-03-01T05:41:00;7.13;;;6.45;;
69417;SDS011;56610;48.872;2.400;2023-03-01T05:43:29;7.65;;;6.82;;
69417;SDS011;56610;48.872;2.400;2023-03-01T05:45:57;7.18;;;6.45;;
69417;SDS011;56610;48.872;2.400;2023-03-01T05:48:22;8.88;;;6.47;;
69417;SDS011;56610;48.872;2.400;2023-03-01T05:50:48;8.63;;;6.80;;
69417;SDS011;56610;48.872;2.400;2023-03-01T05:53:18;8.80;;;7.30;;
69417;SDS011;56610;48.872;2.400;2023-03-01T05:55:46;7.82;;;6.57;;
69417;SDS011;56610;48.872;2.400;2023-03-01T05:58:14;9.32;;;7.05;;
69417;SDS011;56610;48.872;2.400;2023-03-01T06:00:41;8.18;;;7.30;;
69417;SDS011;56610;48.872;2.400;2023-03-01T06:03:09;8.05;;;7.25;;
69417;SDS011;56610;48.872;2.400;2023-03-01T06:05:36;8.90;;;7.40;;
69417;SDS011;56610;48.872;2.400;2023-03-01T06:08:02;8.82;;;7.93;;
69417;SDS011;56610;48.872;2.400;2023-03-01T06:10:28;7.97;;;7.18;;
69417;SDS011;56610;48.872;2.400;2023-03-01T06:12:54;8.68;;;7.82;;
69417;SDS011;56610;48.872;2.400;2023-03-01T06:15:20;8.23;;;7.53;;
69417;SDS011;56610;48.872;2.400;2023-03-01T06:17:46;8.40;;;7.47;;
69417;SDS011;56610;48.872;2.400;2023-03-01T06:22:37;8.32;;;7.45;;
69417;SDS011;56610;48.872;2.400;2023-03-01T06:25:04;8.43;;;7.63;;
69417;SDS011;56610;48.872;2.400;2023-03-01T06:27:30;9.13;;;8.23;;
69417;SDS011;56610;48.872;2.400;2023-03-01T06:29:56;9.85;;;8.18;;
69417;SDS011;56610;48.872;2.400;2023-03-01T06:32:22;9.20;;;8.32;;
69417;SDS011;56610;48.872;2.400;2023-03-01T06:34:47;8.55;;;7.75;;
69417;SDS011;56610;48.872;2.400;2023-03-01T06:37:13;10.25;;;8.82;;
69417;SDS011;56610;48.872;2.400;2023-03-01T06:39:38;11.93;;;8.48;;
69417;SDS011;56610;48.872;2.400;2023-03-01T06:42:04;9.95;;;8.95;;
69417;SDS011;56610;48.872;2.400;2023-03-01T06:44:31;11.18;;;8.50;;
69417;SDS011;56610;48.872;2.400;2023-03-01T06:46:58;9.93;;;8.93;;
69417;SDS011;56610;48.872;2.400;2023-03-01T06:49:24;10.45;;;9.45;;
69417;SDS011;56610;48.872;2.400;2023-03-01T06:51:49;11.40;;;9.35;;
69417;SDS011;56610;48.872;2.400;2023-03-01T06:54:15;10.48;;;8.82;;
69417;SDS011;56610;48.872;2.400;2023-03-01T06:56:42;11.18;;;9.35;;
69417;SDS011;56610;48.872;2.400;2023-03-01T06:59:11;10.63;;;9.50;;
69417;SDS011;56610;48.872;2.400;2023-03-01T07:01:36;9.80;;;8.63;;
69417;SDS011;56610;48.872;2.400;2023-03-01T07:04:02;10.35;;;9.32;;
69417;SDS011;56610;48.872;2.400;2023-03-01T07:06:27;10.98;;;9.88;;
69417;SDS011;56610;48.872;2.400;2023-03-01T07:08:53;10.68;;;9.68;;
69417;SDS011;56610;48.872;2.400;2023-03-01T07:11:19;11.02;;;9.85;;
69417;SDS011;56610;48.872;2.400;2023-03-01T07:13:45;10.82;;;9.73;;
69417;SDS011;56610;48.872;2.400;2023-03-01T07:16:10;12.07;;;10.15;;
69417;SDS011;56610;48.872;2.400;2023-03-01T07:18:36;10.65;;;9.68;;
69417;SDS011;56610;48.872;2.400;2023-03-01T07:21:05;11.60;;;10.40;;
69417;SDS011;56610;48.872;2.400;2023-03-01T07:23:33;11.35;;;10.15;;
69417;SDS011;56610;48.872;2.400;2023-03-01T07:25:59;11.73;;;10.48;;
69417;SDS011;56610;48.872;2.400;2023-03-01T07:28:28;11.98;;;10.65;;
69417;SDS011;56610;48.872;2.400;2023-03-01T07:30:54;11.98;;;10.48;;
69417;SDS011;56610;48.872;2.400;2023-03-01T07:33:20;12.80;;;11.60;;
69417;SDS011;56610;48.872;2.400;2023-03-01T07:35:46;11.30;;;10.13;;
69417;SDS011;56610;48.872;2.400;2023-03-01T07:38:11;13.65;;;11.15;;
69417;SDS011;56610;48.872;2.400;2023-03-01T07:40:37;11.18;;;10.13;;
69417;SDS011;56610;48.872;2.400;2023-03-01T07:43:02;14.45;;;11.82;;
69417;SDS011;56610;48.872;2.400;2023-03-01T07:45:28;11.32;;;10.27;;
69417;SDS011;56610;48.872;2.400;2023-03-01T07:47:54;11.93;;;10.55;;
69417;SDS011;56610;48.872;2.400;2023-03-01T07:50:20;13.90;;;11.07;;
69417;SDS011;56610;48.872;2.400;2023-03-01T07:52:47;12.05;;;10.85;;
69417;SDS011;56610;48.872;2.400;2023-03-01T07:55:13;11.40;;;10.23;;
69417;SDS011;56610;48.872;2.400;2023-03-01T07:57:39;13.02;;;11.10;;
69417;SDS011;56610;48.872;2.400;2023-03-01T08:00:05;13.48;;;11.73;;
69417;SDS011;56610;48.872;2.400;2023-03-01T08:02:32;12.07;;;10.70;;
69417;SDS011;56610;48.872;2.400;2023-03-01T08:04:57;11.60;;;10.40;;
69417;SDS011;56610;48.872;2.400;2023-03-01T08:07:23;12.73;;;11.43;;
69417;SDS011;56610;48.872;2.400;2023-03-01T08:09:48;12.38;;;10.25;;
69417;SDS011;56610;48.872;2.400;2023-03-01T08:12:14;12.38;;;10.90;;
69417;SDS011;56610;48.872;2.400;2023-03-01T08:14:41;12.60;;;10.67;;
69417;SDS011;56610;48.872;2.400;2023-03-01T08:17:07;11.82;;;10.07;;
69417;SDS011;56610;48.872;2.400;2023-03-01T08:19:33;11.98;;;10.77;;
69417;SDS011;56610;48.872;2.400;2023-03-01T08:22:00;11.65;;;10.45;;
69417;SDS011;56610;48.872;2.400;2023-03-01T08:24:27;12.35;;;11.15;;
69417;SDS011;56610;48.872;2.400;2023-03-01T08:26:53;11.85;;;10.23;;
69417;SDS011;56610;48.872;2.400;2023-03-01T08:29:19;11.60;;;10.40;;
69417;SDS011;56610;48.872;2.400;2023-03-01T08:31:45;12.00;;;10.82;;
69417;SDS011;56610;48.872;2.400;2023-03-01T08:34:12;11.88;;;10.63;;
69417;SDS011;56610;48.872;2.400;2023-03-01T08:36:40;11.95;;;10.75;;
69417;SDS011;56610;48.872;2.400;2023-03-01T08:39:08;11.40;;;10.35;;
69417;SDS011;56610;48.872;2.400;2023-03-01T08:41:35;11.93;;;10.63;;
69417;SDS011;56610;48.872;2.400;2023-03-01T08:44:02;13.90;;;11.23;;
69417;SDS011;56610;48.872;2.400;2023-03-01T08:46:29;11.85;;;10.63;;
69417;SDS011;56610;48.872;2.400;2023-03-01T08:48:57;12.40;;;10.80;;
69417;SDS011;56610;48.872;2.400;2023-03-01T08:51:23;12.15;;;10.70;;
69417;SDS011;56610;48.872;2.400;2023-03-01T08:53:49;12.40;;;10.35;;
69417;SDS011;56610;48.872;2.400;2023-03-01T08:56:15;11.57;;;10.43;;
69417;SDS011;56610;48.872;2.400;2023-03-01T08:58:43;13.23;;;10.82;;
69417;SDS011;56610;48.872;2.400;2023-03-01T09:01:10;12.02;;;10.82;;
69417;SDS011;56610;48.872;2.400;2023-03-01T09:03:37;12.38;;;10.57;;
69417;SDS011;56610;48.872;2.400;2023-03-01T09:06:04;12.25;;;10.48;;
69417;SDS011;56610;48.872;2.400;2023-03-01T09:08:33;11.65;;;9.88;;
69417;SDS011;56610;48.872;2.400;2023-03-01T09:11:01;12.00;;;10.80;;
69417;SDS011;56610;48.872;2.400;2023-03-01T09:13:28;11.57;;;10.40;;
69417;SDS011;56610;48.872;2.400;2023-03-01T09:15:56;12.02;;;10.57;;
69417;SDS011;56610;48.872;2.400;2023-03-01T09:18:22;12.55;;;10.15;;
69417;SDS011;56610;48.872;2.400;2023-03-01T09:20:48;11.60;;;10.43;;
69417;SDS011;56610;48.872;2.400;2023-03-01T09:23:13;12.25;;;10.95;;
69417;SDS011;56610;48.872;2.400;2023-03-01T09:25:39;12.18;;;10.75;;
69417;SDS011;56610;48.872;2.400;2023-03-01T09:28:04;11.98;;;10.85;;
69417;SDS011;56610;48.872;2.400;2023-03-01T09:30:30;11.02;;;9.93;;
69417;SDS011;56610;48.872;2.400;2023-03-01T09:32:56;11.40;;;10.30;;
69417;SDS011;56610;48.872;2.400;2023-03-01T09:35:21;12.23;;;10.10;;
69417;SDS011;56610;48.872;2.400;2023-03-01T09:37:48;11.32;;;10.23;;
69417;SDS011;56610;48.872;2.400;2023-03-01T09:40:16;12.23;;;10.75;;
69417;SDS011;56610;48.872;2.400;2023-03-01T09:42:52;11.35;;;10.25;;
69417;SDS011;56610;48.872;2.400;2023-03-01T09:45:22;11.32;;;10.23;;
69417;SDS011;56610;48.872;2.400;2023-03-01T09:47:53;11.65;;;10.40;;
69417;SDS011;56610;48.872;2.400;2023-03-01T09:50:20;11.48;;;10.43;;
69417;SDS011;56610;48.872;2.400;2023-03-01T09:55:44;11.27;;;10.23;;
69417;SDS011;56610;48.872;2.400;2023-03-01T10:04:03;12.32;;;10.48;;
69417;SDS011;56610;48.872;2.400;2023-03-01T10:06:36;11.43;;;10.20;;
69417;SDS011;56610;48.872;2.400;2023-03-01T10:09:07;11.38;;;10.27;;
69417;SDS011;56610;48.872;2.400;2023-03-01T10:11:38;13.98;;;10.68;;
69417;SDS011;56610;48.872;2.400;2023-03-01T10:17:06;13.05;;;11.18;;
69417;SDS011;56610;48.872;2.400;2023-03-01T10:19:52;11.15;;;9.90;;
69417;SDS011;56610;48.872;2.400;2023-03-01T10:22:20;11.45;;;9.65;;
69417;SDS011;56610;48.872;2.400;2023-03-01T10:24:57;14.02;;;10.98;;
69417;SDS011;56610;48.872;2.400;2023-03-01T10:27:25;11.60;;;10.25;;
69417;SDS011;56610;48.872;2.400;2023-03-01T10:32:59;11.10;;;10.00;;
69417;SDS011;56610;48.872;2.400;2023-03-01T10:35:27;12.98;;;11.05;;
69417;SDS011;56610;48.872;2.400;2023-03-01T10:38:04;12.73;;;11.43;;
69417;SDS011;56610;48.872;2.400;2023-03-01T10:42:59;11.38;;;10.27;;
69417;SDS011;56610;48.872;2.400;2023-03-01T10:48:28;11.85;;;10.63;;
69417;SDS011;56610;48.872;2.400;2023-03-01T10:50:50;11.73;;;10.52;;
69417;SDS011;56610;48.872;2.400;2023-03-01T10:53:34;11.63;;;10.43;;
69417;SDS011;56610;48.872;2.400;2023-03-01T10:58:33;12.35;;;10.93;;
69417;SDS011;56610;48.872;2.400;2023-03-01T11:03:32;11.45;;;10.15;;
69417;SDS011;56610;48.872;2.400;2023-03-01T11:06:00;11.63;;;10.45;;
69417;SDS011;56610;48.872;2.400;2023-03-01T11:08:41;12.15;;;10.80;;
69417;SDS011;56610;48.872;2.400;2023-03-01T11:13:54;12.07;;;10.88;;
69417;SDS011;56610;48.872;2.400;2023-03-01T11:16:31;12.18;;;10.77;;
69417;SDS011;56610;48.872;2.400;2023-03-01T11:19:00;13.07;;;11.23;;
69417;SDS011;56610;48.872;2.400;2023-03-01T11:27:28;11.00;;;9.80;;
69417;SDS011;56610;48.872;2.400;2023-03-01T11:30:03;11.27;;;9.88;;
69417;SDS011;56610;48.872;2.400;2023-03-01T11:35:22;11.00;;;9.95;;
69417;SDS011;56610;48.872;2.400;2023-03-01T11:46:29;11.70;;;10.25;;
69417;SDS011;56610;48.872;2.400;2023-03-01T11:54:13;10.38;;;9.38;;
69417;SDS011;56610;48.872;2.400;2023-03-01T11:56:47;10.57;;;9.65;;
69417;SDS011;56610;48.872;2.400;2023-03-01T11:59:32;10.05;;;8.77;;
69417;SDS011;56610;48.872;2.400;2023-03-01T12:07:12;10.43;;;9.35;;
69417;SDS011;56610;48.872;2.400;2023-03-01T12:45:54;10.43;;;9.43;;
69417;SDS011;56610;48.872;2.400;2023-03-01T12:48:46;10.98;;;9.77;;
69417;SDS011;56610;48.872;2.400;2023-03-01T12:51:17;9.93;;;8.93;;
69417;SDS011;56610;48.872;2.400;2023-03-01T12:53:50;18.52;;;10.55;;
69417;SDS011;56610;48.872;2.400;2023-03-01T12:56:19;11.48;;;10.32;;
69417;SDS011;56610;48.872;2.400;2023-03-01T13:17:59;11.65;;;10.38;;
69417;SDS011;56610;48.872;2.400;2023-03-01T13:20:50;11.90;;;10.70;;
69417;SDS011;56610;48.872;2.400;2023-03-01T13:26:19;10.50;;;9.45;;
69417;SDS011;56610;48.872;2.400;2023-03-01T13:31:54;10.75;;;9.75;;
69417;SDS011;56610;48.872;2.400;2023-03-01T13:33:59;10.10;;;9.18;;
69417;SDS011;56610;48.872;2.400;2023-03-01T13:46:49;11.35;;;10.02;;
69417;SDS011;56610;48.872;2.400;2023-03-01T13:49:21;11.85;;;10.73;;
69417;SDS011;56610;48.872;2.400;2023-03-01T13:51:50;11.18;;;10.18;;
69417;SDS011;56610;48.872;2.400;2023-03-01T13:54:18;10.10;;;9.20;;
69417;SDS011;56610;48.872;2.400;2023-03-01T13:56:51;11.23;;;10.23;;
69417;SDS011;56610;48.872;2.400;2023-03-01T13:59:19;10.18;;;9.18;;
69417;SDS011;56610;48.872;2.400;2023-03-01T14:01:56;11.30;;;10.20;;
69417;SDS011;56610;48.872;2.400;2023-03-01T14:04:24;10.93;;;9.82;;
69417;SDS011;56610;48.872;2.400;2023-03-01T14:07:12;10.07;;;9.07;;
69417;SDS011;56610;48.872;2.400;2023-03-01T14:09:43;11.17;;;10.17;;
69417;SDS011;56610;48.872;2.400;2023-03-01T14:15:13;10.32;;;9.32;;
69417;SDS011;56610;48.872;2.400;2023-03-01T14:18:01;10.65;;;9.65;;
69417;SDS011;56610;48.872;2.400;2023-03-01T14:20:38;11.03;;;10.13;;
69417;SDS011;56610;48.872;2.400;2023-03-01T14:23:11;11.27;;;10.18;;
69417;SDS011;56610;48.872;2.400;2023-03-01T14:25:45;10.70;;;9.68;;
69417;SDS011;56610;48.872;2.400;2023-03-01T14:30:46;10.68;;;9.68;;
69417;SDS011;56610;48.872;2.400;2023-03-01T14:36:01;10.45;;;9.48;;
69417;SDS011;56610;48.872;2.400;2023-03-01T14:41:20;12.88;;;11.60;;
69417;SDS011;56610;48.872;2.400;2023-03-01T14:43:51;11.35;;;10.25;;
69417;SDS011;56610;48.872;2.400;2023-03-01T14:48:51;11.43;;;10.32;;
69417;SDS011;56610;48.872;2.400;2023-03-01T14:51:20;11.27;;;10.23;;
69417;SDS011;56610;48.872;2.400;2023-03-01T14:53:46;11.40;;;10.43;;
69417;SDS011;56610;48.872;2.400;2023-03-01T14:56:13;11.50;;;10.40;;
69417;SDS011;56610;48.872;2.400;2023-03-01T14:58:42;11.43;;;10.02;;
69417;SDS011;56610;48.872;2.400;2023-03-01T15:01:10;11.90;;;10.80;;
69417;SDS011;56610;48.872;2.400;2023-03-01T15:03:43;10.45;;;9.55;;
69417;SDS011;56610;48.872;2.400;2023-03-01T15:06:11;11.68;;;10.68;;
69417;SDS011;56610;48.872;2.400;2023-03-01T15:08:42;12.55;;;11.30;;
69417;SDS011;56610;48.872;2.400;2023-03-01T15:11:22;11.63;;;10.48;;
69417;SDS011;56610;48.872;2.400;2023-03-01T15:13:49;11.75;;;10.55;;
69417;SDS011;56610;48.872;2.400;2023-03-01T15:16:17;13.13;;;11.65;;
69417;SDS011;56610;48.872;2.400;2023-03-01T15:18:47;11.50;;;10.40;;
69417;SDS011;56610;48.872;2.400;2023-03-01T15:21:19;12.50;;;11.40;;
69417;SDS011;56610;48.872;2.400;2023-03-01T15:23:56;12.27;;;11.02;;
69417;SDS011;56610;48.872;2.400;2023-03-01T15:26:49;12.07;;;10.98;;
69417;SDS011;56610;48.872;2.400;2023-03-01T15:29:19;12.98;;;11.73;;
69417;SDS011;56610;48.872;2.400;2023-03-01T15:32:02;13.65;;;11.57;;
69417;SDS011;56610;48.872;2.400;2023-03-01T15:34:47;13.05;;;11.75;;
69417;SDS011;56610;48.872;2.400;2023-03-01T15:40:16;11.50;;;10.43;;
69417;SDS011;56610;48.872;2.400;2023-03-01T15:42:45;13.52;;;11.82;;
69417;SDS011;56610;48.872;2.400;2023-03-01T15:47:52;12.95;;;11.70;;
69417;SDS011;56610;48.872;2.400;2023-03-01T15:52:53;13.18;;;10.98;;
69417;SDS011;56610;48.872;2.400;2023-03-01T15:55:20;11.02;;;9.75;;
69417;SDS011;56610;48.872;2.400;2023-03-01T15:57:58;12.23;;;11.05;;
69417;SDS011;56610;48.872;2.400;2023-03-01T16:00:28;11.73;;;10.63;;
69417;SDS011;56610;48.872;2.400;2023-03-01T16:02:54;12.05;;;10.95;;
69417;SDS011;56610;48.872;2.400;2023-03-01T16:05:22;11.63;;;10.43;;
69417;SDS011;56610;48.872;2.400;2023-03-01T16:07:50;11.32;;;10.32;;
69417;SDS011;56610;48.872;2.400;2023-03-01T16:10:17;12.23;;;11.00;;
69417;SDS011;56610;48.872;2.400;2023-03-01T16:12:43;12.50;;;11.30;;
69417;SDS011;56610;48.872;2.400;2023-03-01T16:15:13;10.38;;;9.45;;
69417;SDS011;56610;48.872;2.400;2023-03-01T16:17:44;11.88;;;10.68;;
69417;SDS011;56610;48.872;2.400;2023-03-01T16:20:10;11.18;;;10.07;;
69417;SDS011;56610;48.872;2.400;2023-03-01T16:22:36;11.05;;;9.95;;
69417;SDS011;56610;48.872;2.400;2023-03-01T16:25:02;12.10;;;10.88;;
69417;SDS011;56610;48.872;2.400;2023-03-01T16:27:28;11.15;;;10.05;;
69417;SDS011;56610;48.872;2.400;2023-03-01T16:29:54;11.32;;;10.23;;
69417;SDS011;56610;48.872;2.400;2023-03-01T16:32:19;10.95;;;9.95;;
69417;SDS011;56610;48.872;2.400;2023-03-01T16:34:45;10.95;;;9.95;;
69417;SDS011;56610;48.872;2.400;2023-03-01T16:37:14;12.68;;;9.73;;
69417;SDS011;56610;48.872;2.400;2023-03-01T16:39:40;11.05;;;10.00;;
69417;SDS011;56610;48.872;2.400;2023-03-01T16:42:05;10.18;;;9.27;;
69417;SDS011;56610;48.872;2.400;2023-03-01T16:44:31;10.65;;;9.57;;
69417;SDS011;56610;48.872;2.400;2023-03-01T16:46:56;10.38;;;9.38;;
69417;SDS011;56610;48.872;2.400;2023-03-01T16:49:22;10.93;;;9.65;;
69417;SDS011;56610;48.872;2.400;2023-03-01T16:51:47;10.80;;;9.80;;
69417;SDS011;56610;48.872;2.400;2023-03-01T16:54:13;10.70;;;9.70;;
69417;SDS011;56610;48.872;2.400;2023-03-01T16:56:39;10.63;;;9.73;;
69417;SDS011;56610;48.872;2.400;2023-03-01T16:59:05;10.18;;;9.27;;
69417;SDS011;56610;48.872;2.400;2023-03-01T17:01:31;10.38;;;9.20;;
69417;SDS011;56610;48.872;2.400;2023-03-01T17:04:02;11.02;;;10.02;;
69417;SDS011;56610;48.872;2.400;2023-03-01T17:06:28;10.45;;;9.43;;
69417;SDS011;56610;48.872;2.400;2023-03-01T17:08:54;10.27;;;9.15;;
69417;SDS011;56610;48.872;2.400;2023-03-01T17:11:20;9.88;;;8.75;;
69417;SDS011;56610;48.872;2.400;2023-03-01T17:13:46;11.60;;;9.25;;
69417;SDS011;56610;48.872;2.400;2023-03-01T17:16:14;10.45;;;9.45;;
69417;SDS011;56610;48.872;2.400;2023-03-01T17:18:41;9.98;;;9.07;;
69417;SDS011;56610;48.872;2.400;2023-03-01T17:21:07;10.38;;;9.45;;
69417;SDS011;56610;48.872;2.400;2023-03-01T17:23:33;10.57;;;9.48;;
69417;SDS011;56610;48.872;2.400;2023-03-01T17:28:28;11.45;;;10.30;;
69417;SDS011;56610;48.872;2.400;2023-03-01T17:30:57;11.75;;;10.07;;
69417;SDS011;56610;48.872;2.400;2023-03-01T17:33:24;11.57;;;10.27;;
69417;SDS011;56610;48.872;2.400;2023-03-01T17:35:49;11.40;;;10.32;;
69417;SDS011;56610;48.872;2.400;2023-03-01T17:38:15;11.13;;;10.02;;
69417;SDS011;56610;48.872;2.400;2023-03-01T17:40:41;11.88;;;10.65;;
69417;SDS011;56610;48.872;2.400;2023-03-01T17:43:10;11.48;;;10.27;;
69417;SDS011;56610;48.872;2.400;2023-03-01T17:45:37;11.13;;;10.02;;
69417;SDS011;56610;48.872;2.400;2023-03-01T17:48:03;11.18;;;10.18;;
69417;SDS011;56610;48.872;2.400;2023-03-01T17:50:29;10.98;;;9.73;;